Paige Marie — WCY5613 — position and weather

sailwx.info

Track history (hours):
 
Tides and Currents Weather Stations Pressure Air Temp Water Temp Dewpoint Dewpoint Depression Visibility Wind Speed Wind Dir Waves Ship Positions

Paige Marie

Owner: SORO, INC., Gig Harbor, WA. More information available from US FCC via Universal Licensing System and Coast Guard Vessel Documentation Center.

Last reported at 2018-Jun-18 13:05 UTC. Time now 2018-Jul-16 06:36 UTC.
Position N 54°14' W 130°35'.
Warning: this ship's position is 27 days out of date.

Length 18 m.

Type: Fishing. MMSI: 367355120.

Date/timePositionNaut miles runAvg speedWind from/ knotsBaromVisibWave heightAir tempDewpointWater temp
2018-Jun-18 13:05N 54°14' W 130°35'1 8.4
2018-Jun-18 12:58N 54°14' W 130°34'4 8.6
2018-Jun-18 12:29N 54°11' W 130°29'4 8.3
2018-Jun-18 12:00N 54°08' W 130°25'4 7.8
2018-Jun-18 11:30N 54°05' W 130°20'4 8.5
2018-Jun-18 11:00N 54°02' W 130°14'4 8.8
2018-Jun-18 10:30N 53°58' W 130°12'4 7.8
2018-Jun-18 09:59N 53°54' W 130°09'150 6.7
2018-Jun-17 11:38N 51°47' W 127°58'2 8.0
2018-Jun-17 11:22N 51°45' W 127°57'3 7.9
2018-Jun-17 11:00N 51°42' W 127°56'4 8.1
2018-Jun-17 10:30N 51°38' W 127°54'5 8.3
2018-Jun-17 09:57N 51°34' W 127°52'36 7.6
2018-Jun-17 05:11N 50°60' W 127°34'1 8.2
2018-Jun-17 05:00N 50°59' W 127°32'5 8.7
2018-Jun-17 04:29N 50°56' W 127°26'94 7.9
2018-Jun-16 16:32N 50°07' W 125°20'011.9
2018-Jun-16 16:29N 50°07' W 125°19'174 5.1
2018-Jun-15 06:20N 47°54' W 122°28'3 9.0
2018-Jun-15 06:00N 47°51' W 122°27'18 8.5
2018-Jun-15 03:52N 47°33' W 122°27'3 8.6
2018-Jun-15 03:28N 47°30' W 122°30'8 8.9
2018-Jun-15 02:35N 47°22' W 122°32'3 1.8
2018-Jun-15 00:52N 47°20' W 122°35'0 0.0
2018-Jun-15 00:16N 47°20' W 122°35'  
2018-Jun-09 21:40N 47°20' W 122°35'0 0.0
2018-Jun-09 21:16N 47°20' W 122°35'0 0.0
2018-Jun-09 20:52N 47°20' W 122°35'0 0.0
2018-Jun-09 20:25N 47°20' W 122°35'  
Track history (hours):
 
Tides and Currents Weather Stations Pressure Air Temp Water Temp Dewpoint Dewpoint Depression Visibility Wind Speed Wind Dir Waves Ship Positions

Paige Marie

Owner: SORO, INC., Gig Harbor, WA. More information available from US FCC via Universal Licensing System and Coast Guard Vessel Documentation Center.

Last reported at 2018-Jun-18 13:05 UTC. Time now 2018-Jul-16 06:36 UTC.
Position N 54°14' W 130°35'.
Warning: this ship's position is 27 days out of date.

Length 18 m.

Type: Fishing. MMSI: 367355120.

Date/timePositionNaut miles runAvg speedWind from/ knotsBaromVisibWave heightAir tempDewpointWater temp
2018-Jun-18 13:05N 54°14' W 130°35'1 8.4
2018-Jun-18 12:58N 54°14' W 130°34'4 8.6
2018-Jun-18 12:29N 54°11' W 130°29'4 8.3
2018-Jun-18 12:00N 54°08' W 130°25'4 7.8
2018-Jun-18 11:30N 54°05' W 130°20'4 8.5
2018-Jun-18 11:00N 54°02' W 130°14'4 8.8
2018-Jun-18 10:30N 53°58' W 130°12'4 7.8
2018-Jun-18 09:59N 53°54' W 130°09'150 6.7
2018-Jun-17 11:38N 51°47' W 127°58'2 8.0
2018-Jun-17 11:22N 51°45' W 127°57'3 7.9
2018-Jun-17 11:00N 51°42' W 127°56'4 8.1
2018-Jun-17 10:30N 51°38' W 127°54'5 8.3
2018-Jun-17 09:57N 51°34' W 127°52'36 7.6
2018-Jun-17 05:11N 50°60' W 127°34'1 8.2
2018-Jun-17 05:00N 50°59' W 127°32'5 8.7
2018-Jun-17 04:29N 50°56' W 127°26'94 7.9
2018-Jun-16 16:32N 50°07' W 125°20'011.9
2018-Jun-16 16:29N 50°07' W 125°19'174 5.1
2018-Jun-15 06:20N 47°54' W 122°28'3 9.0
2018-Jun-15 06:00N 47°51' W 122°27'18 8.5
2018-Jun-15 03:52N 47°33' W 122°27'3 8.6
2018-Jun-15 03:28N 47°30' W 122°30'8 8.9
2018-Jun-15 02:35N 47°22' W 122°32'3 1.8
2018-Jun-15 00:52N 47°20' W 122°35'0 0.0
2018-Jun-15 00:16N 47°20' W 122°35'  
2018-Jun-09 21:40N 47°20' W 122°35'0 0.0
2018-Jun-09 21:16N 47°20' W 122°35'0 0.0
2018-Jun-09 20:52N 47°20' W 122°35'0 0.0
2018-Jun-09 20:25N 47°20' W 122°35'  

Dump ship's entire track history